sensor_id;sensor_type;location;lat;lon;timestamp;P1;durP1;ratioP1;P2;durP2;ratioP2
74543;SDS011;63016;55.030;38.710;2022-09-13T00:00:28;36.88;;;18.15;;
74543;SDS011;63016;55.030;38.710;2022-09-13T00:02:54;39.33;;;17.95;;
74543;SDS011;63016;55.030;38.710;2022-09-13T00:05:19;36.97;;;17.88;;
74543;SDS011;63016;55.030;38.710;2022-09-13T00:07:45;42.58;;;19.30;;
74543;SDS011;63016;55.030;38.710;2022-09-13T00:10:10;38.28;;;18.10;;
74543;SDS011;63016;55.030;38.710;2022-09-13T00:12:36;35.63;;;17.63;;
74543;SDS011;63016;55.030;38.710;2022-09-13T00:15:02;37.65;;;19.25;;
74543;SDS011;63016;55.030;38.710;2022-09-13T00:17:27;36.53;;;18.42;;
74543;SDS011;63016;55.030;38.710;2022-09-13T00:19:53;36.92;;;18.20;;
74543;SDS011;63016;55.030;38.710;2022-09-13T00:22:19;48.22;;;19.00;;
74543;SDS011;63016;55.030;38.710;2022-09-13T00:24:44;38.75;;;19.15;;
74543;SDS011;63016;55.030;38.710;2022-09-13T00:27:10;40.40;;;17.75;;
74543;SDS011;63016;55.030;38.710;2022-09-13T00:29:37;33.88;;;18.67;;
74543;SDS011;63016;55.030;38.710;2022-09-13T00:32:02;40.38;;;19.35;;
74543;SDS011;63016;55.030;38.710;2022-09-13T00:34:28;39.60;;;19.38;;
74543;SDS011;63016;55.030;38.710;2022-09-13T00:36:54;43.25;;;19.67;;
74543;SDS011;63016;55.030;38.710;2022-09-13T00:39:20;41.70;;;20.20;;
74543;SDS011;63016;55.030;38.710;2022-09-13T00:41:46;38.10;;;19.02;;
74543;SDS011;63016;55.030;38.710;2022-09-13T00:47:17;38.25;;;18.70;;
74543;SDS011;63016;55.030;38.710;2022-09-13T00:50:17;42.50;;;19.85;;
74543;SDS011;63016;55.030;38.710;2022-09-13T00:52:50;37.63;;;18.48;;
74543;SDS011;63016;55.030;38.710;2022-09-13T00:55:40;39.95;;;19.33;;
74543;SDS011;63016;55.030;38.710;2022-09-13T00:58:24;43.85;;;19.77;;
74543;SDS011;63016;55.030;38.710;2022-09-13T01:00:52;39.25;;;19.83;;
74543;SDS011;63016;55.030;38.710;2022-09-13T01:03:19;41.70;;;19.40;;
74543;SDS011;63016;55.030;38.710;2022-09-13T01:05:51;39.65;;;20.30;;
74543;SDS011;63016;55.030;38.710;2022-09-13T01:08:20;39.83;;;19.15;;
74543;SDS011;63016;55.030;38.710;2022-09-13T01:10:52;39.28;;;19.02;;
74543;SDS011;63016;55.030;38.710;2022-09-13T01:13:21;51.05;;;21.05;;
74543;SDS011;63016;55.030;38.710;2022-09-13T01:15:49;40.78;;;19.88;;
74543;SDS011;63016;55.030;38.710;2022-09-13T01:18:16;42.40;;;20.13;;
74543;SDS011;63016;55.030;38.710;2022-09-13T01:24:22;49.90;;;20.55;;
74543;SDS011;63016;55.030;38.710;2022-09-13T01:26:18;47.60;;;20.10;;
74543;SDS011;63016;55.030;38.710;2022-09-13T01:45:42;47.58;;;21.50;;
74543;SDS011;63016;55.030;38.710;2022-09-13T01:48:33;45.10;;;20.90;;
74543;SDS011;63016;55.030;38.710;2022-09-13T01:51:19;47.53;;;21.33;;
74543;SDS011;63016;55.030;38.710;2022-09-13T01:53:53;45.35;;;20.65;;
74543;SDS011;63016;55.030;38.710;2022-09-13T02:02:14;44.50;;;20.92;;
74543;SDS011;63016;55.030;38.710;2022-09-13T02:04:45;47.10;;;21.48;;
74543;SDS011;63016;55.030;38.710;2022-09-13T02:09:57;40.33;;;21.63;;
74543;SDS011;63016;55.030;38.710;2022-09-13T02:15:17;42.97;;;20.73;;
74543;SDS011;63016;55.030;38.710;2022-09-13T02:17:47;48.05;;;21.55;;
74543;SDS011;63016;55.030;38.710;2022-09-13T02:21:01;44.72;;;22.00;;
74543;SDS011;63016;55.030;38.710;2022-09-13T02:24:10;55.53;;;21.92;;
74543;SDS011;63016;55.030;38.710;2022-09-13T02:26:08;57.90;;;23.70;;
74543;SDS011;63016;55.030;38.710;2022-09-13T02:28:38;48.20;;;22.48;;
74543;SDS011;63016;55.030;38.710;2022-09-13T02:31:09;49.90;;;22.58;;
74543;SDS011;63016;55.030;38.710;2022-09-13T02:33:41;47.25;;;21.98;;
74543;SDS011;63016;55.030;38.710;2022-09-13T02:36:15;50.53;;;23.65;;
74543;SDS011;63016;55.030;38.710;2022-09-13T02:41:24;48.40;;;22.67;;
74543;SDS011;63016;55.030;38.710;2022-09-13T02:44:03;49.38;;;22.58;;
74543;SDS011;63016;55.030;38.710;2022-09-13T02:49:22;47.63;;;23.15;;
74543;SDS011;63016;55.030;38.710;2022-09-13T02:57:52;51.75;;;23.85;;
74543;SDS011;63016;55.030;38.710;2022-09-13T03:00:24;54.45;;;23.80;;
74543;SDS011;63016;55.030;38.710;2022-09-13T03:02:50;50.15;;;24.27;;
74543;SDS011;63016;55.030;38.710;2022-09-13T03:05:18;55.67;;;25.25;;
74543;SDS011;63016;55.030;38.710;2022-09-13T03:07:44;58.20;;;25.40;;
74543;SDS011;63016;55.030;38.710;2022-09-13T03:10:11;56.15;;;24.40;;
74543;SDS011;63016;55.030;38.710;2022-09-13T03:29:10;56.03;;;25.02;;
74543;SDS011;63016;55.030;38.710;2022-09-13T03:32:19;51.40;;;25.00;;
74543;SDS011;63016;55.030;38.710;2022-09-13T03:37:55;58.58;;;25.48;;
74543;SDS011;63016;55.030;38.710;2022-09-13T03:43:02;62.35;;;27.02;;
74543;SDS011;63016;55.030;38.710;2022-09-13T03:45:30;58.28;;;25.27;;
74543;SDS011;63016;55.030;38.710;2022-09-13T03:48:00;58.35;;;27.60;;
74543;SDS011;63016;55.030;38.710;2022-09-13T03:50:27;64.72;;;26.67;;
74543;SDS011;63016;55.030;38.710;2022-09-13T03:52:56;64.75;;;28.80;;
74543;SDS011;63016;55.030;38.710;2022-09-13T03:55:26;62.55;;;27.80;;
74543;SDS011;63016;55.030;38.710;2022-09-13T03:57:54;73.40;;;28.42;;
74543;SDS011;63016;55.030;38.710;2022-09-13T04:00:19;61.80;;;27.77;;
74543;SDS011;63016;55.030;38.710;2022-09-13T04:02:45;57.00;;;26.50;;
74543;SDS011;63016;55.030;38.710;2022-09-13T04:05:11;54.65;;;26.50;;
74543;SDS011;63016;55.030;38.710;2022-09-13T04:07:36;56.83;;;26.13;;
74543;SDS011;63016;55.030;38.710;2022-09-13T04:10:02;56.08;;;26.73;;
74543;SDS011;63016;55.030;38.710;2022-09-13T04:12:27;55.92;;;26.10;;
74543;SDS011;63016;55.030;38.710;2022-09-13T04:14:55;52.55;;;24.42;;
74543;SDS011;63016;55.030;38.710;2022-09-13T04:17:21;49.50;;;24.65;;
74543;SDS011;63016;55.030;38.710;2022-09-13T04:19:46;53.08;;;24.38;;
74543;SDS011;63016;55.030;38.710;2022-09-13T04:22:12;55.83;;;26.02;;
74543;SDS011;63016;55.030;38.710;2022-09-13T04:24:38;57.88;;;24.48;;
74543;SDS011;63016;55.030;38.710;2022-09-13T04:27:04;52.88;;;24.50;;
74543;SDS011;63016;55.030;38.710;2022-09-13T04:29:30;56.05;;;23.67;;
74543;SDS011;63016;55.030;38.710;2022-09-13T04:31:57;55.00;;;23.75;;
74543;SDS011;63016;55.030;38.710;2022-09-13T04:34:23;51.10;;;24.73;;
74543;SDS011;63016;55.030;38.710;2022-09-13T04:36:49;58.63;;;23.40;;
74543;SDS011;63016;55.030;38.710;2022-09-13T04:39:17;50.70;;;23.48;;
74543;SDS011;63016;55.030;38.710;2022-09-13T04:41:46;52.03;;;24.20;;
74543;SDS011;63016;55.030;38.710;2022-09-13T04:44:13;49.88;;;23.55;;
74543;SDS011;63016;55.030;38.710;2022-09-13T04:46:41;51.30;;;22.38;;
74543;SDS011;63016;55.030;38.710;2022-09-13T04:49:08;51.38;;;24.00;;
74543;SDS011;63016;55.030;38.710;2022-09-13T04:51:34;48.22;;;22.25;;
74543;SDS011;63016;55.030;38.710;2022-09-13T04:54:00;50.03;;;23.27;;
74543;SDS011;63016;55.030;38.710;2022-09-13T04:56:25;53.47;;;21.58;;
74543;SDS011;63016;55.030;38.710;2022-09-13T04:58:52;47.40;;;21.95;;
74543;SDS011;63016;55.030;38.710;2022-09-13T05:01:19;48.20;;;21.10;;
74543;SDS011;63016;55.030;38.710;2022-09-13T05:03:45;47.70;;;22.02;;
74543;SDS011;63016;55.030;38.710;2022-09-13T05:06:12;49.38;;;21.95;;
74543;SDS011;63016;55.030;38.710;2022-09-13T05:08:41;43.22;;;21.33;;
74543;SDS011;63016;55.030;38.710;2022-09-13T05:11:08;42.42;;;19.77;;
74543;SDS011;63016;55.030;38.710;2022-09-13T05:13:34;45.90;;;19.63;;
74543;SDS011;63016;55.030;38.710;2022-09-13T05:16:01;41.20;;;20.23;;
74543;SDS011;63016;55.030;38.710;2022-09-13T05:18:34;43.22;;;20.75;;
74543;SDS011;63016;55.030;38.710;2022-09-13T05:21:01;36.38;;;19.58;;
74543;SDS011;63016;55.030;38.710;2022-09-13T05:23:29;42.28;;;20.52;;
74543;SDS011;63016;55.030;38.710;2022-09-13T05:25:56;37.47;;;18.65;;
74543;SDS011;63016;55.030;38.710;2022-09-13T05:28:32;44.15;;;18.55;;
74543;SDS011;63016;55.030;38.710;2022-09-13T05:31:03;38.03;;;18.90;;
74543;SDS011;63016;55.030;38.710;2022-09-13T05:33:36;37.85;;;17.95;;
74543;SDS011;63016;55.030;38.710;2022-09-13T05:36:03;41.42;;;20.27;;
74543;SDS011;63016;55.030;38.710;2022-09-13T05:38:29;42.67;;;19.80;;
74543;SDS011;63016;55.030;38.710;2022-09-13T05:41:04;40.10;;;18.52;;
74543;SDS011;63016;55.030;38.710;2022-09-13T05:43:33;39.40;;;18.75;;
74543;SDS011;63016;55.030;38.710;2022-09-13T05:46:10;41.17;;;18.92;;
74543;SDS011;63016;55.030;38.710;2022-09-13T05:48:38;44.80;;;18.52;;
74543;SDS011;63016;55.030;38.710;2022-09-13T05:51:07;40.17;;;17.90;;
74543;SDS011;63016;55.030;38.710;2022-09-13T05:53:33;33.95;;;18.42;;
74543;SDS011;63016;55.030;38.710;2022-09-13T05:55:59;40.45;;;17.05;;
74543;SDS011;63016;55.030;38.710;2022-09-13T05:58:25;35.42;;;16.77;;
74543;SDS011;63016;55.030;38.710;2022-09-13T06:00:53;32.78;;;16.67;;
74543;SDS011;63016;55.030;38.710;2022-09-13T06:03:20;32.67;;;15.50;;
74543;SDS011;63016;55.030;38.710;2022-09-13T06:05:53;36.03;;;16.67;;
74543;SDS011;63016;55.030;38.710;2022-09-13T06:08:27;35.38;;;15.85;;
74543;SDS011;63016;55.030;38.710;2022-09-13T06:10:54;33.10;;;15.63;;
74543;SDS011;63016;55.030;38.710;2022-09-13T06:13:21;30.23;;;15.15;;
74543;SDS011;63016;55.030;38.710;2022-09-13T06:15:48;33.70;;;14.45;;
74543;SDS011;63016;55.030;38.710;2022-09-13T06:18:18;27.35;;;14.82;;
74543;SDS011;63016;55.030;38.710;2022-09-13T06:20:43;31.48;;;14.90;;
74543;SDS011;63016;55.030;38.710;2022-09-13T06:23:09;26.58;;;14.43;;
74543;SDS011;63016;55.030;38.710;2022-09-13T06:25:35;28.52;;;13.68;;
74543;SDS011;63016;55.030;38.710;2022-09-13T06:28:01;33.88;;;14.50;;
74543;SDS011;63016;55.030;38.710;2022-09-13T06:30:27;27.15;;;13.45;;
74543;SDS011;63016;55.030;38.710;2022-09-13T06:32:54;28.02;;;13.70;;
74543;SDS011;63016;55.030;38.710;2022-09-13T06:35:23;29.65;;;13.75;;
74543;SDS011;63016;55.030;38.710;2022-09-13T06:37:48;23.85;;;12.07;;
74543;SDS011;63016;55.030;38.710;2022-09-13T06:40:14;26.17;;;12.60;;
74543;SDS011;63016;55.030;38.710;2022-09-13T06:42:41;24.90;;;12.27;;
74543;SDS011;63016;55.030;38.710;2022-09-13T06:45:06;22.02;;;10.88;;
74543;SDS011;63016;55.030;38.710;2022-09-13T06:47:33;22.83;;;11.32;;
74543;SDS011;63016;55.030;38.710;2022-09-13T06:49:58;26.17;;;11.77;;
74543;SDS011;63016;55.030;38.710;2022-09-13T06:52:26;23.15;;;11.77;;
74543;SDS011;63016;55.030;38.710;2022-09-13T06:54:52;22.33;;;11.93;;
74543;SDS011;63016;55.030;38.710;2022-09-13T06:57:17;19.63;;;10.10;;
74543;SDS011;63016;55.030;38.710;2022-09-13T06:59:43;22.20;;;10.18;;
74543;SDS011;63016;55.030;38.710;2022-09-13T07:02:09;19.20;;;9.18;;
74543;SDS011;63016;55.030;38.710;2022-09-13T07:04:35;17.25;;;8.85;;
74543;SDS011;63016;55.030;38.710;2022-09-13T07:07:01;23.60;;;9.63;;
74543;SDS011;63016;55.030;38.710;2022-09-13T07:09:26;20.13;;;8.70;;
74543;SDS011;63016;55.030;38.710;2022-09-13T07:11:53;16.73;;;8.88;;
74543;SDS011;63016;55.030;38.710;2022-09-13T07:14:20;15.50;;;7.93;;
74543;SDS011;63016;55.030;38.710;2022-09-13T07:16:47;16.25;;;8.77;;
74543;SDS011;63016;55.030;38.710;2022-09-13T07:19:18;16.75;;;8.43;;
74543;SDS011;63016;55.030;38.710;2022-09-13T07:21:46;14.23;;;7.05;;
74543;SDS011;63016;55.030;38.710;2022-09-13T07:24:14;14.27;;;6.78;;
74543;SDS011;63016;55.030;38.710;2022-09-13T07:26:40;13.02;;;6.72;;
74543;SDS011;63016;55.030;38.710;2022-09-13T07:29:07;10.32;;;6.28;;
74543;SDS011;63016;55.030;38.710;2022-09-13T07:31:36;11.73;;;6.38;;
74543;SDS011;63016;55.030;38.710;2022-09-13T07:34:06;16.42;;;6.60;;
74543;SDS011;63016;55.030;38.710;2022-09-13T07:36:35;11.50;;;5.60;;
74543;SDS011;63016;55.030;38.710;2022-09-13T07:39:02;11.35;;;5.10;;
74543;SDS011;63016;55.030;38.710;2022-09-13T07:41:29;10.57;;;5.55;;
74543;SDS011;63016;55.030;38.710;2022-09-13T07:43:56;8.52;;;4.78;;
74543;SDS011;63016;55.030;38.710;2022-09-13T07:46:23;8.38;;;4.88;;
74543;SDS011;63016;55.030;38.710;2022-09-13T07:48:54;10.80;;;4.38;;
74543;SDS011;63016;55.030;38.710;2022-09-13T07:51:25;9.57;;;4.13;;
74543;SDS011;63016;55.030;38.710;2022-09-13T07:53:53;11.23;;;4.45;;
74543;SDS011;63016;55.030;38.710;2022-09-13T07:56:21;8.73;;;3.78;;
74543;SDS011;63016;55.030;38.710;2022-09-13T07:58:49;6.47;;;3.33;;
74543;SDS011;63016;55.030;38.710;2022-09-13T08:06:20;6.80;;;3.45;;
74543;SDS011;63016;55.030;38.710;2022-09-13T08:08:46;5.78;;;3.05;;
74543;SDS011;63016;55.030;38.710;2022-09-13T08:11:21;6.78;;;2.80;;
74543;SDS011;63016;55.030;38.710;2022-09-13T08:13:52;6.20;;;3.20;;
74543;SDS011;63016;55.030;38.710;2022-09-13T08:16:19;6.45;;;3.25;;
74543;SDS011;63016;55.030;38.710;2022-09-13T08:18:46;4.47;;;2.88;;
74543;SDS011;63016;55.030;38.710;2022-09-13T08:21:13;8.63;;;2.60;;
74543;SDS011;63016;55.030;38.710;2022-09-13T08:23:40;4.45;;;2.55;;
74543;SDS011;63016;55.030;38.710;2022-09-13T08:26:05;4.03;;;2.80;;
74543;SDS011;63016;55.030;38.710;2022-09-13T08:28:32;3.20;;;2.42;;
74543;SDS011;63016;55.030;38.710;2022-09-13T08:31:05;3.33;;;2.50;;
74543;SDS011;63016;55.030;38.710;2022-09-13T08:33:41;3.45;;;2.60;;
74543;SDS011;63016;55.030;38.710;2022-09-13T08:36:11;4.43;;;2.80;;
74543;SDS011;63016;55.030;38.710;2022-09-13T08:38:36;10.95;;;3.05;;
74543;SDS011;63016;55.030;38.710;2022-09-13T08:41:03;6.40;;;3.20;;
74543;SDS011;63016;55.030;38.710;2022-09-13T08:43:54;5.97;;;3.35;;
74543;SDS011;63016;55.030;38.710;2022-09-13T08:46:51;5.72;;;3.15;;
74543;SDS011;63016;55.030;38.710;2022-09-13T08:49:27;7.82;;;3.75;;
74543;SDS011;63016;55.030;38.710;2022-09-13T08:52:04;9.10;;;4.70;;
74543;SDS011;63016;55.030;38.710;2022-09-13T08:54:48;13.27;;;5.70;;
74543;SDS011;63016;55.030;38.710;2022-09-13T08:57:19;13.30;;;5.88;;
74543;SDS011;63016;55.030;38.710;2022-09-13T09:05:28;12.00;;;6.82;;
74543;SDS011;63016;55.030;38.710;2022-09-13T09:08:00;11.35;;;6.60;;
74543;SDS011;63016;55.030;38.710;2022-09-13T09:10:44;13.45;;;6.13;;
74543;SDS011;63016;55.030;38.710;2022-09-13T09:15:57;17.00;;;6.25;;
74543;SDS011;63016;55.030;38.710;2022-09-13T09:18:44;11.20;;;6.43;;
74543;SDS011;63016;55.030;38.710;2022-09-13T09:21:19;17.42;;;6.50;;
74543;SDS011;63016;55.030;38.710;2022-09-13T09:23:50;14.35;;;6.20;;
74543;SDS011;63016;55.030;38.710;2022-09-13T09:26:24;9.07;;;5.28;;
74543;SDS011;63016;55.030;38.710;2022-09-13T09:31:32;16.20;;;5.43;;
74543;SDS011;63016;55.030;38.710;2022-09-13T09:34:17;9.00;;;4.55;;
74543;SDS011;63016;55.030;38.710;2022-09-13T09:36:55;13.75;;;4.32;;
74543;SDS011;63016;55.030;38.710;2022-09-13T09:39:23;8.25;;;4.57;;
74543;SDS011;63016;55.030;38.710;2022-09-13T09:41:56;9.98;;;4.18;;
74543;SDS011;63016;55.030;38.710;2022-09-13T09:44:23;9.48;;;4.32;;
74543;SDS011;63016;55.030;38.710;2022-09-13T09:49:39;4.82;;;3.03;;
74543;SDS011;63016;55.030;38.710;2022-09-13T09:52:29;6.63;;;2.92;;
74543;SDS011;63016;55.030;38.710;2022-09-13T09:55:09;4.55;;;2.83;;
74543;SDS011;63016;55.030;38.710;2022-09-13T09:58:16;4.15;;;1.98;;
74543;SDS011;63016;55.030;38.710;2022-09-13T10:00:49;5.10;;;2.17;;
74543;SDS011;63016;55.030;38.710;2022-09-13T10:03:19;5.53;;;2.20;;
74543;SDS011;63016;55.030;38.710;2022-09-13T10:05:48;7.40;;;2.08;;
74543;SDS011;63016;55.030;38.710;2022-09-13T10:08:27;2.22;;;1.90;;
74543;SDS011;63016;55.030;38.710;2022-09-13T10:10:56;2.10;;;1.83;;
74543;SDS011;63016;55.030;38.710;2022-09-13T10:13:24;4.60;;;1.70;;
74543;SDS011;63016;55.030;38.710;2022-09-13T10:15:55;3.42;;;1.73;;
74543;SDS011;63016;55.030;38.710;2022-09-13T10:18:26;4.70;;;1.80;;
74543;SDS011;63016;55.030;38.710;2022-09-13T10:21:00;2.50;;;1.70;;
74543;SDS011;63016;55.030;38.710;2022-09-13T10:23:46;5.25;;;1.90;;
74543;SDS011;63016;55.030;38.710;2022-09-13T10:26:20;4.75;;;1.80;;
74543;SDS011;63016;55.030;38.710;2022-09-13T10:31:40;2.00;;;1.50;;
74543;SDS011;63016;55.030;38.710;2022-09-13T10:34:12;3.85;;;1.70;;
74543;SDS011;63016;55.030;38.710;2022-09-13T10:39:19;2.95;;;1.60;;
74543;SDS011;63016;55.030;38.710;2022-09-13T10:41:51;1.90;;;1.40;;
74543;SDS011;63016;55.030;38.710;2022-09-13T10:44:31;3.70;;;1.65;;
74543;SDS011;63016;55.030;38.710;2022-09-13T10:47:04;2.60;;;1.42;;
74543;SDS011;63016;55.030;38.710;2022-09-13T10:49:46;2.60;;;1.42;;
74543;SDS011;63016;55.030;38.710;2022-09-13T10:54:53;2.20;;;1.42;;
74543;SDS011;63016;55.030;38.710;2022-09-13T10:57:53;3.72;;;1.35;;
74543;SDS011;63016;55.030;38.710;2022-09-13T11:00:49;4.15;;;1.70;;
74543;SDS011;63016;55.030;38.710;2022-09-13T11:09:19;3.03;;;1.40;;
74543;SDS011;63016;55.030;38.710;2022-09-13T11:45:38;3.40;;;1.38;;
74543;SDS011;63016;55.030;38.710;2022-09-13T11:56:21;3.78;;;1.42;;
74543;SDS011;63016;55.030;38.710;2022-09-13T11:58:51;2.35;;;1.20;;
74543;SDS011;63016;55.030;38.710;2022-09-13T12:01:25;2.75;;;1.40;;
74543;SDS011;63016;55.030;38.710;2022-09-13T12:06:45;2.03;;;1.50;;
74543;SDS011;63016;55.030;38.710;2022-09-13T12:12:17;4.60;;;1.23;;
74543;SDS011;63016;55.030;38.710;2022-09-13T12:14:50;4.20;;;1.23;;
74543;SDS011;63016;55.030;38.710;2022-09-13T12:17:23;1.42;;;1.20;;
74543;SDS011;63016;55.030;38.710;2022-09-13T12:19:53;1.77;;;1.20;;
74543;SDS011;63016;55.030;38.710;2022-09-13T12:22:22;2.85;;;1.30;;
74543;SDS011;63016;55.030;38.710;2022-09-13T12:24:54;2.85;;;1.25;;
74543;SDS011;63016;55.030;38.710;2022-09-13T12:27:27;2.95;;;1.13;;
74543;SDS011;63016;55.030;38.710;2022-09-13T12:29:56;4.63;;;1.10;;
74543;SDS011;63016;55.030;38.710;2022-09-13T12:32:30;4.68;;;1.20;;
74543;SDS011;63016;55.030;38.710;2022-09-13T12:34:57;3.78;;;1.20;;
74543;SDS011;63016;55.030;38.710;2022-09-13T12:40:36;3.90;;;1.40;;
74543;SDS011;63016;55.030;38.710;2022-09-13T12:57:53;2.88;;;1.20;;
74543;SDS011;63016;55.030;38.710;2022-09-13T13:00:21;5.18;;;1.40;;
74543;SDS011;63016;55.030;38.710;2022-09-13T13:03:00;5.28;;;1.40;;
74543;SDS011;63016;55.030;38.710;2022-09-13T13:08:05;2.03;;;1.50;;
74543;SDS011;63016;55.030;38.710;2022-09-13T13:11:05;3.43;;;1.77;;
74543;SDS011;63016;55.030;38.710;2022-09-13T13:13:38;3.53;;;1.63;;
74543;SDS011;63016;55.030;38.710;2022-09-13T13:16:26;4.95;;;1.80;;
74543;SDS011;63016;55.030;38.710;2022-09-13T13:19:01;1.75;;;1.40;;
74543;SDS011;63016;55.030;38.710;2022-09-13T13:21:32;4.53;;;1.40;;
74543;SDS011;63016;55.030;38.710;2022-09-13T13:29:21;2.45;;;1.40;;
74543;SDS011;63016;55.030;38.710;2022-09-13T13:34:29;3.25;;;1.58;;
74543;SDS011;63016;55.030;38.710;2022-09-13T13:37:02;4.03;;;1.20;;
74543;SDS011;63016;55.030;38.710;2022-09-13T13:46:49;1.60;;;1.10;;
74543;SDS011;63016;55.030;38.710;2022-09-13T13:59:51;3.53;;;1.58;;
74543;SDS011;63016;55.030;38.710;2022-09-13T14:02:30;2.47;;;1.40;;
74543;SDS011;63016;55.030;38.710;2022-09-13T14:05:07;1.92;;;1.17;;
74543;SDS011;63016;55.030;38.710;2022-09-13T14:16:26;2.72;;;1.60;;
74543;SDS011;63016;55.030;38.710;2022-09-13T14:21:28;3.10;;;1.57;;
74543;SDS011;63016;55.030;38.710;2022-09-13T14:26:44;3.42;;;1.40;;
74543;SDS011;63016;55.030;38.710;2022-09-13T14:29:14;2.10;;;1.50;;
74543;SDS011;63016;55.030;38.710;2022-09-13T14:31:46;2.80;;;1.40;;
74543;SDS011;63016;55.030;38.710;2022-09-13T14:34:24;4.43;;;1.50;;
74543;SDS011;63016;55.030;38.710;2022-09-13T14:36:54;2.55;;;1.20;;
74543;SDS011;63016;55.030;38.710;2022-09-13T14:39:27;5.70;;;1.40;;
74543;SDS011;63016;55.030;38.710;2022-09-13T14:42:02;2.88;;;1.60;;
74543;SDS011;63016;55.030;38.710;2022-09-13T14:44:34;1.73;;;1.58;;
74543;SDS011;63016;55.030;38.710;2022-09-13T14:49:30;2.08;;;1.30;;
74543;SDS011;63016;55.030;38.710;2022-09-13T14:52:07;2.38;;;1.38;;
74543;SDS011;63016;55.030;38.710;2022-09-13T14:54:46;3.85;;;1.50;;
74543;SDS011;63016;55.030;38.710;2022-09-13T14:57:20;2.25;;;1.50;;
74543;SDS011;63016;55.030;38.710;2022-09-13T15:00:03;6.57;;;1.73;;
74543;SDS011;63016;55.030;38.710;2022-09-13T15:02:35;2.45;;;1.50;;
74543;SDS011;63016;55.030;38.710;2022-09-13T15:05:04;1.98;;;1.38;;
74543;SDS011;63016;55.030;38.710;2022-09-13T15:07:36;2.20;;;1.42;;
74543;SDS011;63016;55.030;38.710;2022-09-13T15:12:51;2.55;;;1.40;;
74543;SDS011;63016;55.030;38.710;2022-09-13T15:15:36;1.95;;;1.60;;
74543;SDS011;63016;55.030;38.710;2022-09-13T15:26:11;2.63;;;1.90;;
74543;SDS011;63016;55.030;38.710;2022-09-13T15:31:20;2.78;;;1.95;;
74543;SDS011;63016;55.030;38.710;2022-09-13T15:33:47;5.13;;;1.98;;
74543;SDS011;63016;55.030;38.710;2022-09-13T15:44:36;2.75;;;1.83;;
74543;SDS011;63016;55.030;38.710;2022-09-13T15:47:01;4.88;;;2.05;;
74543;SDS011;63016;55.030;38.710;2022-09-13T15:49:32;3.85;;;2.40;;
74543;SDS011;63016;55.030;38.710;2022-09-13T15:51:59;3.30;;;2.30;;
74543;SDS011;63016;55.030;38.710;2022-09-13T15:54:29;3.95;;;2.80;;
74543;SDS011;63016;55.030;38.710;2022-09-13T15:56:59;5.85;;;2.67;;
74543;SDS011;63016;55.030;38.710;2022-09-13T15:59:25;4.07;;;3.00;;
74543;SDS011;63016;55.030;38.710;2022-09-13T16:01:51;5.75;;;2.85;;
74543;SDS011;63016;55.030;38.710;2022-09-13T16:04:17;3.95;;;2.95;;
74543;SDS011;63016;55.030;38.710;2022-09-13T16:06:43;4.95;;;3.13;;
74543;SDS011;63016;55.030;38.710;2022-09-13T16:09:19;4.05;;;3.30;;
74543;SDS011;63016;55.030;38.710;2022-09-13T16:11:47;6.82;;;3.50;;
74543;SDS011;63016;55.030;38.710;2022-09-13T16:14:13;7.40;;;4.30;;
74543;SDS011;63016;55.030;38.710;2022-09-13T16:16:39;9.30;;;4.32;;
74543;SDS011;63016;55.030;38.710;2022-09-13T16:19:05;6.45;;;4.22;;
74543;SDS011;63016;55.030;38.710;2022-09-13T16:21:37;10.25;;;4.55;;
74543;SDS011;63016;55.030;38.710;2022-09-13T16:24:02;8.32;;;5.07;;
74543;SDS011;63016;55.030;38.710;2022-09-13T16:26:28;10.52;;;5.53;;
74543;SDS011;63016;55.030;38.710;2022-09-13T16:28:55;9.45;;;5.75;;
74543;SDS011;63016;55.030;38.710;2022-09-13T16:31:21;8.57;;;5.13;;
74543;SDS011;63016;55.030;38.710;2022-09-13T16:33:46;8.88;;;5.65;;
74543;SDS011;63016;55.030;38.710;2022-09-13T16:36:12;8.05;;;5.18;;
74543;SDS011;63016;55.030;38.710;2022-09-13T16:38:37;11.48;;;6.63;;
74543;SDS011;63016;55.030;38.710;2022-09-13T16:41:03;11.15;;;6.25;;
74543;SDS011;63016;55.030;38.710;2022-09-13T16:43:30;10.23;;;5.95;;
74543;SDS011;63016;55.030;38.710;2022-09-13T16:45:57;9.63;;;6.32;;
74543;SDS011;63016;55.030;38.710;2022-09-13T16:48:23;11.68;;;6.15;;
74543;SDS011;63016;55.030;38.710;2022-09-13T16:50:49;14.50;;;5.78;;
74543;SDS011;63016;55.030;38.710;2022-09-13T16:53:14;18.58;;;6.38;;
74543;SDS011;63016;55.030;38.710;2022-09-13T16:55:40;13.98;;;6.78;;
74543;SDS011;63016;55.030;38.710;2022-09-13T16:58:05;11.00;;;5.82;;
74543;SDS011;63016;55.030;38.710;2022-09-13T17:00:30;9.20;;;6.00;;
74543;SDS011;63016;55.030;38.710;2022-09-13T17:02:56;9.10;;;5.32;;
74543;SDS011;63016;55.030;38.710;2022-09-13T17:05:22;8.27;;;6.07;;
74543;SDS011;63016;55.030;38.710;2022-09-13T17:07:49;7.15;;;4.97;;
74543;SDS011;63016;55.030;38.710;2022-09-13T17:10:16;6.70;;;4.70;;
74543;SDS011;63016;55.030;38.710;2022-09-13T17:12:42;5.93;;;4.93;;
74543;SDS011;63016;55.030;38.710;2022-09-13T17:15:07;7.85;;;4.65;;
74543;SDS011;63016;55.030;38.710;2022-09-13T17:17:33;6.07;;;5.20;;
74543;SDS011;63016;55.030;38.710;2022-09-13T17:20:07;5.97;;;4.50;;
74543;SDS011;63016;55.030;38.710;2022-09-13T17:22:34;8.13;;;4.60;;
74543;SDS011;63016;55.030;38.710;2022-09-13T17:25:00;7.90;;;4.15;;
74543;SDS011;63016;55.030;38.710;2022-09-13T17:27:26;5.80;;;4.50;;
74543;SDS011;63016;55.030;38.710;2022-09-13T17:29:52;7.68;;;4.85;;
74543;SDS011;63016;55.030;38.710;2022-09-13T17:32:18;5.70;;;3.80;;
74543;SDS011;63016;55.030;38.710;2022-09-13T17:34:44;5.18;;;4.05;;
74543;SDS011;63016;55.030;38.710;2022-09-13T17:37:09;6.35;;;4.47;;
74543;SDS011;63016;55.030;38.710;2022-09-13T17:39:35;6.43;;;4.30;;
74543;SDS011;63016;55.030;38.710;2022-09-13T17:42:00;5.68;;;4.18;;
74543;SDS011;63016;55.030;38.710;2022-09-13T17:44:26;5.75;;;4.50;;
74543;SDS011;63016;55.030;38.710;2022-09-13T17:46:51;6.25;;;4.35;;
74543;SDS011;63016;55.030;38.710;2022-09-13T17:49:17;5.00;;;4.32;;
74543;SDS011;63016;55.030;38.710;2022-09-13T17:51:43;8.32;;;4.22;;
74543;SDS011;63016;55.030;38.710;2022-09-13T17:54:09;7.78;;;4.72;;
74543;SDS011;63016;55.030;38.710;2022-09-13T17:56:38;6.25;;;4.70;;
74543;SDS011;63016;55.030;38.710;2022-09-13T17:59:12;7.32;;;4.45;;
74543;SDS011;63016;55.030;38.710;2022-09-13T18:01:40;7.60;;;4.80;;
74543;SDS011;63016;55.030;38.710;2022-09-13T18:04:18;8.25;;;5.22;;
74543;SDS011;63016;55.030;38.710;2022-09-13T18:06:46;7.72;;;5.43;;
74543;SDS011;63016;55.030;38.710;2022-09-13T18:09:12;7.15;;;5.50;;
74543;SDS011;63016;55.030;38.710;2022-09-13T18:11:39;8.23;;;4.88;;
74543;SDS011;63016;55.030;38.710;2022-09-13T18:14:05;6.70;;;4.93;;
74543;SDS011;63016;55.030;38.710;2022-09-13T18:16:35;10.38;;;5.07;;
74543;SDS011;63016;55.030;38.710;2022-09-13T18:19:01;10.38;;;5.07;;
74543;SDS011;63016;55.030;38.710;2022-09-13T18:21:26;7.75;;;4.53;;
74543;SDS011;63016;55.030;38.710;2022-09-13T18:23:53;9.65;;;4.85;;
74543;SDS011;63016;55.030;38.710;2022-09-13T18:26:22;10.27;;;5.47;;
74543;SDS011;63016;55.030;38.710;2022-09-13T18:28:56;8.15;;;5.22;;
74543;SDS011;63016;55.030;38.710;2022-09-13T18:31:26;7.97;;;5.38;;
74543;SDS011;63016;55.030;38.710;2022-09-13T18:33:56;9.85;;;5.60;;